Wigan, United Kingdom
Current Conditions -  °F | °C
As of 12:50 PM on Friday 19 Dec 2014 (Local Time) from EGGP Reporting Station
Few Clouds Few Clouds  
Wind Chill: 38°   Ceiling: Unl
Heat Index: 46°   Visibility: 6mi
Dew Point: 37°   Wind: 26mph
Humidity: 71%   Direction: 260°W
Pressure: 29.91"   Gusts: NA
Location:  53.54°N, 2.63°W
Report Text: EGGP 191250Z 26023KT 9999 FEW028 08/03 Q1013
Loading
Personal Weather Stations






























Interactive Weather Map New forecast layout! Learn more

10-Day Weather Forecast

Advertisements
Track Severe Weather on mobile